createdAt,value
2023-01-25T16:26:41.040Z,26.10
2023-01-25T16:29:09.147Z,117.40
2023-01-25T16:31:37.195Z,117.57
2023-01-25T16:34:05.185Z,116.40
2023-01-25T16:36:34.346Z,25.20
2023-01-25T16:39:10.045Z,15.97
2023-01-25T16:41:39.509Z,16.63
2023-01-25T16:44:07.516Z,19.40
2023-01-25T16:46:35.487Z,17.33
2023-01-25T16:49:05.024Z,14.83
2023-01-25T16:51:33.728Z,20.00
2023-01-25T16:54:01.954Z,13.97
2023-01-25T16:56:31.466Z,13.10
2023-01-25T16:59:04.472Z,19.50
2023-01-25T17:01:32.887Z,25.00
2023-01-25T17:04:01.080Z,69.13
2023-01-25T17:06:31.688Z,37.10
2023-01-25T17:09:12.464Z,25.50
2023-01-25T17:11:41.060Z,17.60
2023-01-25T17:14:35.839Z,16.37
2023-01-25T17:17:05.302Z,15.70
2023-01-25T17:19:33.495Z,29.33
2023-01-25T17:22:13.914Z,32.33
2023-01-25T17:24:41.836Z,21.50
2023-01-25T17:27:09.790Z,21.80
2023-01-25T17:29:39.111Z,17.03
2023-01-25T17:32:07.031Z,15.43
2023-01-25T17:34:34.908Z,18.93
2023-01-25T17:37:02.790Z,21.20
2023-01-25T17:39:30.913Z,19.30
2023-01-25T17:41:58.753Z,18.30
2023-01-25T17:44:26.766Z,19.40
2023-01-25T17:46:56.246Z,23.50
2023-01-25T17:49:26.121Z,21.93
2023-01-25T17:51:54.058Z,23.90
2023-01-25T17:54:21.875Z,19.47
2023-01-25T17:56:49.752Z,19.37
2023-01-25T17:59:17.694Z,19.40
2023-01-25T18:01:45.822Z,24.57
2023-01-25T18:04:17.630Z,22.87
2023-01-25T18:06:45.687Z,19.60
2023-01-25T18:09:13.654Z,26.60
2023-01-25T18:11:41.935Z,22.40
2023-01-25T18:14:15.230Z,27.50
2023-01-25T18:16:43.242Z,21.73
2023-01-25T18:19:14.081Z,24.00
2023-01-25T18:21:42.354Z,19.00
2023-01-25T18:24:27.133Z,20.63
2023-01-25T18:27:04.685Z,23.47
2023-01-25T18:29:46.472Z,23.57
2023-01-25T18:32:14.919Z,18.73
2023-01-25T18:34:44.382Z,22.40
2023-01-25T18:37:20.637Z,22.47
2023-01-25T18:39:50.437Z,29.93
2023-01-25T18:42:19.084Z,22.50
2023-01-25T18:44:48.349Z,25.00
2023-01-25T18:47:18.658Z,38.77
2023-01-25T18:49:50.670Z,26.27
2023-01-25T18:52:19.747Z,22.57
2023-01-25T18:54:47.706Z,23.40
2023-01-25T18:57:16.315Z,25.03
2023-01-25T18:59:44.808Z,27.37
2023-01-25T19:10:53.140Z,34.83
2023-01-25T19:26:14.086Z,20.43
2023-01-25T19:37:49.153Z,23.63
2023-01-25T19:40:20.393Z,24.13
2023-01-25T19:42:48.288Z,26.93
2023-01-25T19:45:16.393Z,26.07
2023-01-25T19:47:44.193Z,33.10
2023-01-25T19:50:13.123Z,26.10
2023-01-25T19:52:41.067Z,24.23
2023-01-25T19:55:10.437Z,29.30
2023-01-25T19:57:39.946Z,25.93
2023-01-25T20:00:09.279Z,27.57
2023-01-25T20:02:37.369Z,23.27
2023-01-25T20:05:07.265Z,28.77
2023-01-25T20:07:35.159Z,29.13
2023-01-25T20:10:03.097Z,28.77
2023-01-25T20:12:31.102Z,22.07
2023-01-25T20:15:00.361Z,27.07
2023-01-25T20:17:28.722Z,28.37
2023-01-25T20:19:56.726Z,28.73
2023-01-25T20:22:24.704Z,27.63
2023-01-25T20:24:52.751Z,35.07
2023-01-25T20:27:20.660Z,32.43
2023-01-25T20:29:49.146Z,25.47
2023-01-25T20:32:32.433Z,15.87
2023-01-25T20:35:03.428Z,21.37
2023-01-25T20:37:31.471Z,34.40
2023-01-25T20:39:59.510Z,30.83
2023-01-25T20:42:27.354Z,24.00
2023-01-25T20:44:55.262Z,26.70
2023-01-25T20:47:24.651Z,26.03
2023-01-25T20:49:52.614Z,25.10
2023-01-25T20:52:20.600Z,20.67
2023-01-25T20:54:48.495Z,24.23
2023-01-25T20:57:16.488Z,24.10
2023-01-25T20:59:44.449Z,27.67
2023-01-25T21:02:12.473Z,28.10
2023-01-25T21:04:57.274Z,21.50
2023-01-25T21:07:53.072Z,27.37
2023-01-25T21:10:21.020Z,29.07
2023-01-25T21:12:48.935Z,31.20
2023-01-25T21:15:17.817Z,26.77
2023-01-25T21:17:45.772Z,24.90
2023-01-25T21:20:15.219Z,28.07
2023-01-25T21:22:43.103Z,29.10
2023-01-25T21:25:12.619Z,30.27
2023-01-25T21:27:40.612Z,27.43
2023-01-25T21:30:09.713Z,25.57
2023-01-25T21:32:37.590Z,26.73
2023-01-25T21:35:06.247Z,28.30
2023-01-25T21:37:35.619Z,32.30
2023-01-25T21:40:03.443Z,29.97
2023-01-25T21:42:32.437Z,27.50
2023-01-25T21:45:17.853Z,30.07
2023-01-25T21:47:45.747Z,32.33
2023-01-25T21:50:31.525Z,30.90
2023-01-25T21:53:00.853Z,33.77
2023-01-25T21:55:28.801Z,25.50
2023-01-25T21:57:58.292Z,26.93
2023-01-25T22:00:26.395Z,33.90
2023-01-25T22:02:54.270Z,30.97
2023-01-25T22:05:22.127Z,27.70
2023-01-25T22:07:49.983Z,25.50
2023-01-25T22:10:19.781Z,27.30
2023-01-25T22:12:50.581Z,31.30
2023-01-25T22:15:18.639Z,31.20
2023-01-25T22:17:46.558Z,29.77
2023-01-25T22:20:14.581Z,32.43
2023-01-25T22:22:42.541Z,33.17
2023-01-25T22:25:11.056Z,36.00
2023-01-25T22:27:47.454Z,30.80
2023-01-25T22:30:15.454Z,33.27
2023-01-25T22:32:43.229Z,30.07
2023-01-25T22:35:11.128Z,29.20
2023-01-25T22:37:39.197Z,31.63
2023-01-25T22:40:09.183Z,30.73
2023-01-25T22:42:37.302Z,35.33
2023-01-25T22:45:08.258Z,29.40
2023-01-25T22:47:36.122Z,36.80
2023-01-25T22:50:04.205Z,36.57
2023-01-25T22:52:32.141Z,36.43
2023-01-25T22:54:59.998Z,32.03
2023-01-25T22:57:27.847Z,33.90
2023-01-25T22:59:55.757Z,37.97
2023-01-25T23:02:25.089Z,44.00
2023-01-25T23:04:53.033Z,32.20
2023-01-25T23:07:20.990Z,37.90
2023-01-25T23:09:51.435Z,36.97
2023-01-25T23:12:19.760Z,35.00
2023-01-25T23:14:53.789Z,39.27
2023-01-25T23:17:40.463Z,39.43
2023-01-25T23:20:12.992Z,37.27
2023-01-25T23:22:41.599Z,36.37
2023-01-25T23:25:11.121Z,36.93
2023-01-25T23:27:39.141Z,36.10
2023-01-25T23:30:09.849Z,37.03
2023-01-25T23:32:38.057Z,41.27
2023-01-25T23:35:06.951Z,34.90
2023-01-25T23:37:36.405Z,37.27
2023-01-25T23:40:04.707Z,37.13
2023-01-25T23:42:32.587Z,32.90
2023-01-25T23:45:00.525Z,33.13
2023-01-25T23:47:31.131Z,41.03
2023-01-25T23:49:59.239Z,30.87
2023-01-25T23:52:27.141Z,38.07
2023-01-25T23:54:56.374Z,36.60
2023-01-25T23:57:24.204Z,35.40
2023-01-25T23:59:52.086Z,38.80
